sensor_id;sensor_type;location;lat;lon;timestamp;P1;durP1;ratioP1;P2;durP2;ratioP2
9364;SDS011;4722;49.340;9.800;2023-03-23T00:00:03;4.72;;;0.98;;
9364;SDS011;4722;49.340;9.800;2023-03-23T00:02:33;2.90;;;1.05;;
9364;SDS011;4722;49.340;9.800;2023-03-23T00:05:03;3.70;;;0.95;;
9364;SDS011;4722;49.340;9.800;2023-03-23T00:07:29;2.05;;;1.00;;
9364;SDS011;4722;49.340;9.800;2023-03-23T00:09:55;5.43;;;1.52;;
9364;SDS011;4722;49.340;9.800;2023-03-23T00:12:22;1.42;;;0.85;;
9364;SDS011;4722;49.340;9.800;2023-03-23T00:14:54;2.42;;;0.88;;
9364;SDS011;4722;49.340;9.800;2023-03-23T00:17:19;1.73;;;0.90;;
9364;SDS011;4722;49.340;9.800;2023-03-23T00:19:45;2.08;;;0.93;;
9364;SDS011;4722;49.340;9.800;2023-03-23T00:22:16;3.03;;;0.80;;
9364;SDS011;4722;49.340;9.800;2023-03-23T00:24:44;3.88;;;0.95;;
9364;SDS011;4722;49.340;9.800;2023-03-23T00:27:10;1.45;;;0.77;;
9364;SDS011;4722;49.340;9.800;2023-03-23T00:29:39;2.25;;;1.00;;
9364;SDS011;4722;49.340;9.800;2023-03-23T00:32:07;3.55;;;1.25;;
9364;SDS011;4722;49.340;9.800;2023-03-23T00:34:39;2.40;;;0.82;;
9364;SDS011;4722;49.340;9.800;2023-03-23T00:37:06;3.42;;;1.40;;
9364;SDS011;4722;49.340;9.800;2023-03-23T00:39:32;3.60;;;1.05;;
9364;SDS011;4722;49.340;9.800;2023-03-23T00:42:01;3.75;;;1.05;;
9364;SDS011;4722;49.340;9.800;2023-03-23T00:44:28;2.72;;;0.95;;
9364;SDS011;4722;49.340;9.800;2023-03-23T00:46:55;3.92;;;0.77;;
9364;SDS011;4722;49.340;9.800;2023-03-23T00:49:22;3.10;;;0.98;;
9364;SDS011;4722;49.340;9.800;2023-03-23T00:51:51;1.85;;;0.88;;
9364;SDS011;4722;49.340;9.800;2023-03-23T00:54:17;2.67;;;0.90;;
9364;SDS011;4722;49.340;9.800;2023-03-23T00:56:44;2.28;;;0.98;;
9364;SDS011;4722;49.340;9.800;2023-03-23T00:59:10;3.13;;;1.05;;
9364;SDS011;4722;49.340;9.800;2023-03-23T01:01:36;1.30;;;0.75;;
9364;SDS011;4722;49.340;9.800;2023-03-23T01:04:02;4.20;;;0.90;;
9364;SDS011;4722;49.340;9.800;2023-03-23T01:06:32;2.08;;;1.27;;
9364;SDS011;4722;49.340;9.800;2023-03-23T01:09:00;1.13;;;0.52;;
9364;SDS011;4722;49.340;9.800;2023-03-23T01:11:27;1.30;;;0.63;;
9364;SDS011;4722;49.340;9.800;2023-03-23T01:13:53;1.00;;;0.50;;
9364;SDS011;4722;49.340;9.800;2023-03-23T01:16:20;0.80;;;0.40;;
9364;SDS011;4722;49.340;9.800;2023-03-23T01:18:46;1.75;;;0.32;;
9364;SDS011;4722;49.340;9.800;2023-03-23T01:21:15;1.90;;;0.55;;
9364;SDS011;4722;49.340;9.800;2023-03-23T01:23:42;3.95;;;0.60;;
9364;SDS011;4722;49.340;9.800;2023-03-23T01:26:09;0.63;;;0.40;;
9364;SDS011;4722;49.340;9.800;2023-03-23T01:28:36;0.55;;;0.32;;
9364;SDS011;4722;49.340;9.800;2023-03-23T01:31:12;1.98;;;0.40;;
9364;SDS011;4722;49.340;9.800;2023-03-23T01:33:41;0.88;;;0.47;;
9364;SDS011;4722;49.340;9.800;2023-03-23T01:36:09;1.60;;;0.57;;
9364;SDS011;4722;49.340;9.800;2023-03-23T01:38:36;1.27;;;0.30;;
9364;SDS011;4722;49.340;9.800;2023-03-23T01:41:02;0.70;;;0.38;;
9364;SDS011;4722;49.340;9.800;2023-03-23T01:43:28;1.25;;;0.50;;
9364;SDS011;4722;49.340;9.800;2023-03-23T01:45:54;1.58;;;0.85;;
9364;SDS011;4722;49.340;9.800;2023-03-23T01:48:22;0.20;;;0.20;;
9364;SDS011;4722;49.340;9.800;2023-03-23T01:53:22;3.00;;;0.98;;
9364;SDS011;4722;49.340;9.800;2023-03-23T01:55:50;1.48;;;0.60;;
9364;SDS011;4722;49.340;9.800;2023-03-23T01:58:19;1.02;;;0.60;;
9364;SDS011;4722;49.340;9.800;2023-03-23T04:15:20;2.65;;;0.50;;
9364;SDS011;4722;49.340;9.800;2023-03-23T04:17:47;5.18;;;1.77;;
9364;SDS011;4722;49.340;9.800;2023-03-23T04:20:13;18.30;;;4.75;;
9364;SDS011;4722;49.340;9.800;2023-03-23T04:22:45;9.95;;;4.38;;
9364;SDS011;4722;49.340;9.800;2023-03-23T04:25:14;10.85;;;4.47;;
9364;SDS011;4722;49.340;9.800;2023-03-23T04:27:42;32.17;;;10.98;;
9364;SDS011;4722;49.340;9.800;2023-03-23T04:30:09;22.63;;;9.38;;
9364;SDS011;4722;49.340;9.800;2023-03-23T04:32:35;24.95;;;10.43;;
9364;SDS011;4722;49.340;9.800;2023-03-23T04:35:05;19.50;;;7.82;;
9364;SDS011;4722;49.340;9.800;2023-03-23T04:37:31;42.35;;;16.70;;
9364;SDS011;4722;49.340;9.800;2023-03-23T04:39:59;41.53;;;15.98;;
9364;SDS011;4722;49.340;9.800;2023-03-23T04:42:27;27.27;;;11.82;;
9364;SDS011;4722;49.340;9.800;2023-03-23T04:44:53;19.85;;;7.70;;
9364;SDS011;4722;49.340;9.800;2023-03-23T04:47:20;15.18;;;6.03;;
9364;SDS011;4722;49.340;9.800;2023-03-23T04:49:46;6.25;;;3.15;;
9364;SDS011;4722;49.340;9.800;2023-03-23T04:52:12;4.80;;;2.65;;
9364;SDS011;4722;49.340;9.800;2023-03-23T04:54:39;5.25;;;1.77;;
9364;SDS011;4722;49.340;9.800;2023-03-23T04:57:05;6.55;;;2.50;;
9364;SDS011;4722;49.340;9.800;2023-03-23T04:59:33;3.90;;;1.15;;
9364;SDS011;4722;49.340;9.800;2023-03-23T05:01:59;6.13;;;1.30;;
9364;SDS011;4722;49.340;9.800;2023-03-23T05:04:24;3.92;;;1.10;;
9364;SDS011;4722;49.340;9.800;2023-03-23T05:06:51;3.40;;;0.93;;
9364;SDS011;4722;49.340;9.800;2023-03-23T05:09:18;19.92;;;5.38;;
9364;SDS011;4722;49.340;9.800;2023-03-23T05:11:44;9.13;;;3.47;;
9364;SDS011;4722;49.340;9.800;2023-03-23T05:14:11;5.40;;;1.85;;
9364;SDS011;4722;49.340;9.800;2023-03-23T05:16:37;8.43;;;2.80;;
9364;SDS011;4722;49.340;9.800;2023-03-23T05:19:03;16.48;;;3.78;;
9364;SDS011;4722;49.340;9.800;2023-03-23T05:21:30;12.52;;;3.88;;
9364;SDS011;4722;49.340;9.800;2023-03-23T05:23:56;22.48;;;5.40;;
9364;SDS011;4722;49.340;9.800;2023-03-23T05:26:25;8.38;;;2.60;;
9364;SDS011;4722;49.340;9.800;2023-03-23T05:28:53;3.00;;;0.95;;
9364;SDS011;4722;49.340;9.800;2023-03-23T05:31:20;3.70;;;1.08;;
9364;SDS011;4722;49.340;9.800;2023-03-23T05:33:46;5.53;;;2.00;;
9364;SDS011;4722;49.340;9.800;2023-03-23T05:36:12;8.32;;;2.33;;
9364;SDS011;4722;49.340;9.800;2023-03-23T05:38:39;5.47;;;2.28;;
9364;SDS011;4722;49.340;9.800;2023-03-23T05:41:10;8.23;;;2.35;;
9364;SDS011;4722;49.340;9.800;2023-03-23T05:43:36;7.93;;;2.00;;
9364;SDS011;4722;49.340;9.800;2023-03-23T05:46:01;10.90;;;3.22;;
9364;SDS011;4722;49.340;9.800;2023-03-23T05:48:28;10.13;;;2.50;;
9364;SDS011;4722;49.340;9.800;2023-03-23T05:50:54;6.00;;;1.58;;
9364;SDS011;4722;49.340;9.800;2023-03-23T05:53:20;3.40;;;1.20;;
9364;SDS011;4722;49.340;9.800;2023-03-23T05:55:46;3.47;;;1.10;;
9364;SDS011;4722;49.340;9.800;2023-03-23T05:58:12;4.10;;;1.70;;
9364;SDS011;4722;49.340;9.800;2023-03-23T06:00:38;5.05;;;1.83;;
9364;SDS011;4722;49.340;9.800;2023-03-23T06:03:04;5.55;;;1.40;;
9364;SDS011;4722;49.340;9.800;2023-03-23T06:05:30;11.88;;;2.22;;
9364;SDS011;4722;49.340;9.800;2023-03-23T06:07:57;5.55;;;1.30;;
9364;SDS011;4722;49.340;9.800;2023-03-23T06:10:24;6.78;;;1.98;;
9364;SDS011;4722;49.340;9.800;2023-03-23T06:12:50;5.53;;;2.25;;
9364;SDS011;4722;49.340;9.800;2023-03-23T06:15:16;10.85;;;2.40;;
9364;SDS011;4722;49.340;9.800;2023-03-23T06:17:42;4.78;;;2.35;;
9364;SDS011;4722;49.340;9.800;2023-03-23T06:20:09;8.48;;;1.65;;
9364;SDS011;4722;49.340;9.800;2023-03-23T06:22:38;5.97;;;1.33;;
9364;SDS011;4722;49.340;9.800;2023-03-23T06:25:08;4.70;;;0.90;;
9364;SDS011;4722;49.340;9.800;2023-03-23T06:27:36;3.33;;;1.20;;
9364;SDS011;4722;49.340;9.800;2023-03-23T06:30:02;5.22;;;1.00;;
9364;SDS011;4722;49.340;9.800;2023-03-23T06:32:28;2.42;;;1.27;;
9364;SDS011;4722;49.340;9.800;2023-03-23T06:34:56;1.35;;;0.70;;
9364;SDS011;4722;49.340;9.800;2023-03-23T06:37:22;1.50;;;0.57;;
9364;SDS011;4722;49.340;9.800;2023-03-23T06:39:49;0.95;;;0.52;;
9364;SDS011;4722;49.340;9.800;2023-03-23T06:42:16;0.98;;;0.85;;
9364;SDS011;4722;49.340;9.800;2023-03-23T06:44:43;4.40;;;1.20;;
9364;SDS011;4722;49.340;9.800;2023-03-23T06:47:09;3.42;;;1.58;;
9364;SDS011;4722;49.340;9.800;2023-03-23T06:49:35;4.25;;;1.38;;
9364;SDS011;4722;49.340;9.800;2023-03-23T06:52:01;8.50;;;2.40;;
9364;SDS011;4722;49.340;9.800;2023-03-23T06:54:28;9.98;;;2.92;;
9364;SDS011;4722;49.340;9.800;2023-03-23T06:56:54;12.98;;;4.35;;
9364;SDS011;4722;49.340;9.800;2023-03-23T06:59:20;5.28;;;2.05;;
9364;SDS011;4722;49.340;9.800;2023-03-23T07:01:46;4.82;;;1.98;;
9364;SDS011;4722;49.340;9.800;2023-03-23T07:04:13;9.00;;;4.43;;
9364;SDS011;4722;49.340;9.800;2023-03-23T07:06:39;5.68;;;1.75;;
9364;SDS011;4722;49.340;9.800;2023-03-23T07:09:05;4.60;;;2.40;;
9364;SDS011;4722;49.340;9.800;2023-03-23T07:11:31;6.20;;;2.63;;
9364;SDS011;4722;49.340;9.800;2023-03-23T07:13:57;3.70;;;2.20;;
9364;SDS011;4722;49.340;9.800;2023-03-23T07:16:23;8.25;;;3.55;;
9364;SDS011;4722;49.340;9.800;2023-03-23T07:18:49;4.72;;;2.33;;
9364;SDS011;4722;49.340;9.800;2023-03-23T07:21:15;3.58;;;1.38;;
9364;SDS011;4722;49.340;9.800;2023-03-23T07:23:42;3.55;;;1.00;;
9364;SDS011;4722;49.340;9.800;2023-03-23T07:26:07;1.85;;;1.02;;
9364;SDS011;4722;49.340;9.800;2023-03-23T07:28:33;2.35;;;0.85;;
9364;SDS011;4722;49.340;9.800;2023-03-23T07:31:01;2.28;;;1.00;;
9364;SDS011;4722;49.340;9.800;2023-03-23T07:33:27;1.10;;;0.63;;
9364;SDS011;4722;49.340;9.800;2023-03-23T07:35:53;1.10;;;0.55;;
9364;SDS011;4722;49.340;9.800;2023-03-23T07:38:19;0.95;;;0.68;;
9364;SDS011;4722;49.340;9.800;2023-03-23T07:40:45;2.53;;;0.90;;
9364;SDS011;4722;49.340;9.800;2023-03-23T07:43:11;2.95;;;0.63;;
9364;SDS011;4722;49.340;9.800;2023-03-23T07:45:38;1.88;;;0.47;;
9364;SDS011;4722;49.340;9.800;2023-03-23T07:48:04;2.55;;;0.90;;
9364;SDS011;4722;49.340;9.800;2023-03-23T07:50:30;3.83;;;0.90;;
9364;SDS011;4722;49.340;9.800;2023-03-23T07:52:57;2.17;;;1.08;;
9364;SDS011;4722;49.340;9.800;2023-03-23T07:55:23;2.00;;;1.00;;
9364;SDS011;4722;49.340;9.800;2023-03-23T07:57:50;4.20;;;0.90;;
9364;SDS011;4722;49.340;9.800;2023-03-23T08:00:16;8.40;;;0.98;;
9364;SDS011;4722;49.340;9.800;2023-03-23T08:02:48;1.23;;;0.60;;
9364;SDS011;4722;49.340;9.800;2023-03-23T08:05:21;1.45;;;0.63;;
9364;SDS011;4722;49.340;9.800;2023-03-23T08:07:48;2.60;;;0.70;;
9364;SDS011;4722;49.340;9.800;2023-03-23T08:10:15;2.30;;;0.63;;
9364;SDS011;4722;49.340;9.800;2023-03-23T08:12:42;0.70;;;0.43;;
9364;SDS011;4722;49.340;9.800;2023-03-23T08:15:09;1.17;;;0.70;;
9364;SDS011;4722;49.340;9.800;2023-03-23T08:17:38;7.40;;;1.10;;
9364;SDS011;4722;49.340;9.800;2023-03-23T08:20:05;1.08;;;0.55;;
9364;SDS011;4722;49.340;9.800;2023-03-23T08:22:37;3.40;;;0.63;;
9364;SDS011;4722;49.340;9.800;2023-03-23T08:25:05;3.17;;;1.55;;
9364;SDS011;4722;49.340;9.800;2023-03-23T08:27:32;3.03;;;0.75;;
9364;SDS011;4722;49.340;9.800;2023-03-23T08:29:58;1.48;;;0.55;;
9364;SDS011;4722;49.340;9.800;2023-03-23T08:32:24;1.33;;;0.70;;
9364;SDS011;4722;49.340;9.800;2023-03-23T08:34:51;1.88;;;1.00;;
9364;SDS011;4722;49.340;9.800;2023-03-23T08:37:17;2.40;;;0.47;;
9364;SDS011;4722;49.340;9.800;2023-03-23T08:39:43;1.20;;;0.68;;
9364;SDS011;4722;49.340;9.800;2023-03-23T08:42:09;3.03;;;1.13;;
9364;SDS011;4722;49.340;9.800;2023-03-23T08:44:36;4.00;;;1.45;;
9364;SDS011;4722;49.340;9.800;2023-03-23T08:47:01;7.43;;;2.10;;
9364;SDS011;4722;49.340;9.800;2023-03-23T08:49:28;6.63;;;1.90;;
9364;SDS011;4722;49.340;9.800;2023-03-23T08:51:55;4.28;;;1.50;;
9364;SDS011;4722;49.340;9.800;2023-03-23T08:54:21;5.13;;;1.33;;
9364;SDS011;4722;49.340;9.800;2023-03-23T08:56:47;7.32;;;1.15;;
9364;SDS011;4722;49.340;9.800;2023-03-23T08:59:13;1.98;;;1.00;;
9364;SDS011;4722;49.340;9.800;2023-03-23T09:01:39;5.45;;;0.65;;
9364;SDS011;4722;49.340;9.800;2023-03-23T09:04:06;1.63;;;0.50;;
9364;SDS011;4722;49.340;9.800;2023-03-23T09:06:34;3.30;;;0.82;;
9364;SDS011;4722;49.340;9.800;2023-03-23T09:09:01;3.05;;;0.85;;
9364;SDS011;4722;49.340;9.800;2023-03-23T09:11:31;1.50;;;0.60;;
9364;SDS011;4722;49.340;9.800;2023-03-23T09:13:57;2.45;;;0.60;;
9364;SDS011;4722;49.340;9.800;2023-03-23T09:16:23;2.30;;;0.57;;
9364;SDS011;4722;49.340;9.800;2023-03-23T09:18:50;1.35;;;0.60;;
9364;SDS011;4722;49.340;9.800;2023-03-23T09:21:15;2.53;;;0.65;;
9364;SDS011;4722;49.340;9.800;2023-03-23T09:23:41;0.85;;;0.70;;
9364;SDS011;4722;49.340;9.800;2023-03-23T09:26:09;2.92;;;1.00;;
9364;SDS011;4722;49.340;9.800;2023-03-23T09:28:35;1.42;;;0.47;;
9364;SDS011;4722;49.340;9.800;2023-03-23T09:31:01;1.27;;;0.63;;
9364;SDS011;4722;49.340;9.800;2023-03-23T09:33:27;4.28;;;1.45;;
9364;SDS011;4722;49.340;9.800;2023-03-23T09:35:57;2.47;;;1.73;;
9364;SDS011;4722;49.340;9.800;2023-03-23T09:38:23;2.50;;;0.90;;
9364;SDS011;4722;49.340;9.800;2023-03-23T09:46:22;0.60;;;0.30;;
9364;SDS011;4722;49.340;9.800;2023-03-23T09:48:52;0.73;;;0.40;;
9364;SDS011;4722;49.340;9.800;2023-03-23T09:53:48;2.05;;;0.57;;
9364;SDS011;4722;49.340;9.800;2023-03-23T09:56:16;1.10;;;0.38;;
9364;SDS011;4722;49.340;9.800;2023-03-23T10:01:28;1.35;;;0.63;;
9364;SDS011;4722;49.340;9.800;2023-03-23T10:04:09;1.80;;;0.50;;
9364;SDS011;4722;49.340;9.800;2023-03-23T10:06:36;4.38;;;0.80;;
9364;SDS011;4722;49.340;9.800;2023-03-23T10:09:02;1.13;;;0.75;;
9364;SDS011;4722;49.340;9.800;2023-03-23T10:11:38;1.70;;;0.40;;
9364;SDS011;4722;49.340;9.800;2023-03-23T10:16:51;7.78;;;0.63;;
9364;SDS011;4722;49.340;9.800;2023-03-23T10:22:20;4.18;;;1.17;;
9364;SDS011;4722;49.340;9.800;2023-03-23T10:24:57;5.03;;;1.08;;
9364;SDS011;4722;49.340;9.800;2023-03-23T10:27:33;5.30;;;1.98;;
9364;SDS011;4722;49.340;9.800;2023-03-23T10:30:20;6.78;;;0.82;;
9364;SDS011;4722;49.340;9.800;2023-03-23T10:32:52;1.05;;;0.68;;
9364;SDS011;4722;49.340;9.800;2023-03-23T10:35:20;10.35;;;2.17;;
9364;SDS011;4722;49.340;9.800;2023-03-23T10:37:56;2.22;;;0.90;;
9364;SDS011;4722;49.340;9.800;2023-03-23T10:40:28;0.98;;;0.50;;
9364;SDS011;4722;49.340;9.800;2023-03-23T10:42:54;2.28;;;0.80;;
9364;SDS011;4722;49.340;9.800;2023-03-23T10:48:12;1.05;;;0.60;;
9364;SDS011;4722;49.340;9.800;2023-03-23T10:50:39;0.90;;;0.52;;
9364;SDS011;4722;49.340;9.800;2023-03-23T10:53:13;1.52;;;0.68;;
9364;SDS011;4722;49.340;9.800;2023-03-23T10:55:43;1.77;;;0.70;;
9364;SDS011;4722;49.340;9.800;2023-03-23T10:58:11;1.77;;;0.80;;
9364;SDS011;4722;49.340;9.800;2023-03-23T11:00:47;0.95;;;0.40;;
9364;SDS011;4722;49.340;9.800;2023-03-23T11:05:43;2.58;;;0.70;;
9364;SDS011;4722;49.340;9.800;2023-03-23T11:08:15;1.23;;;0.52;;
9364;SDS011;4722;49.340;9.800;2023-03-23T11:10:49;1.08;;;0.52;;
9364;SDS011;4722;49.340;9.800;2023-03-23T11:13:20;1.98;;;0.82;;
9364;SDS011;4722;49.340;9.800;2023-03-23T11:15:50;2.78;;;0.65;;
9364;SDS011;4722;49.340;9.800;2023-03-23T11:18:20;1.55;;;0.50;;
9364;SDS011;4722;49.340;9.800;2023-03-23T11:20:48;3.30;;;0.55;;
9364;SDS011;4722;49.340;9.800;2023-03-23T11:23:21;1.45;;;0.43;;
9364;SDS011;4722;49.340;9.800;2023-03-23T11:25:57;0.80;;;0.30;;
9364;SDS011;4722;49.340;9.800;2023-03-23T11:28:35;4.15;;;0.52;;
9364;SDS011;4722;49.340;9.800;2023-03-23T11:31:03;1.00;;;0.50;;
9364;SDS011;4722;49.340;9.800;2023-03-23T11:33:38;0.68;;;0.30;;
9364;SDS011;4722;49.340;9.800;2023-03-23T11:36:06;0.90;;;0.35;;
9364;SDS011;4722;49.340;9.800;2023-03-23T11:38:33;1.48;;;0.77;;
9364;SDS011;4722;49.340;9.800;2023-03-23T11:40:59;0.70;;;0.35;;
9364;SDS011;4722;49.340;9.800;2023-03-23T11:43:26;1.52;;;0.30;;
9364;SDS011;4722;49.340;9.800;2023-03-23T11:46:01;0.93;;;0.45;;
9364;SDS011;4722;49.340;9.800;2023-03-23T11:48:57;1.45;;;0.70;;
9364;SDS011;4722;49.340;9.800;2023-03-23T11:51:34;1.50;;;0.43;;
9364;SDS011;4722;49.340;9.800;2023-03-23T11:54:33;0.73;;;0.30;;
9364;SDS011;4722;49.340;9.800;2023-03-23T11:56:59;1.30;;;0.60;;
9364;SDS011;4722;49.340;9.800;2023-03-23T11:59:26;1.55;;;0.60;;
9364;SDS011;4722;49.340;9.800;2023-03-23T12:01:56;2.30;;;0.52;;
9364;SDS011;4722;49.340;9.800;2023-03-23T12:09:33;2.17;;;0.55;;
9364;SDS011;4722;49.340;9.800;2023-03-23T12:12:05;1.13;;;0.50;;
9364;SDS011;4722;49.340;9.800;2023-03-23T12:33:27;2.00;;;0.82;;
9364;SDS011;4722;49.340;9.800;2023-03-23T12:44:27;3.47;;;0.40;;
9364;SDS011;4722;49.340;9.800;2023-03-23T12:47:16;3.90;;;1.60;;
9364;SDS011;4722;49.340;9.800;2023-03-23T12:50:07;0.88;;;0.50;;
9364;SDS011;4722;49.340;9.800;2023-03-23T12:52:53;2.90;;;0.75;;
9364;SDS011;4722;49.340;9.800;2023-03-23T12:55:43;1.88;;;0.40;;
9364;SDS011;4722;49.340;9.800;2023-03-23T12:58:13;1.60;;;0.82;;
9364;SDS011;4722;49.340;9.800;2023-03-23T13:00:52;1.60;;;0.82;;
9364;SDS011;4722;49.340;9.800;2023-03-23T13:06:07;10.35;;;3.63;;
9364;SDS011;4722;49.340;9.800;2023-03-23T13:11:39;1.10;;;0.50;;
9364;SDS011;4722;49.340;9.800;2023-03-23T13:22:46;1.55;;;0.68;;
9364;SDS011;4722;49.340;9.800;2023-03-23T13:26:09;1.10;;;0.52;;
9364;SDS011;4722;49.340;9.800;2023-03-23T13:28:14;8.05;;;0.98;;
9364;SDS011;4722;49.340;9.800;2023-03-23T13:30:59;1.20;;;0.80;;
9364;SDS011;4722;49.340;9.800;2023-03-23T13:33:33;3.28;;;0.70;;
9364;SDS011;4722;49.340;9.800;2023-03-23T13:36:04;1.80;;;0.90;;
9364;SDS011;4722;49.340;9.800;2023-03-23T13:38:36;1.13;;;0.50;;
9364;SDS011;4722;49.340;9.800;2023-03-23T13:41:10;2.88;;;0.77;;
9364;SDS011;4722;49.340;9.800;2023-03-23T13:43:38;2.35;;;1.40;;
9364;SDS011;4722;49.340;9.800;2023-03-23T13:46:09;1.55;;;0.70;;
9364;SDS011;4722;49.340;9.800;2023-03-23T13:48:45;4.40;;;0.95;;
9364;SDS011;4722;49.340;9.800;2023-03-23T13:51:24;1.50;;;0.50;;
9364;SDS011;4722;49.340;9.800;2023-03-23T13:56:53;1.08;;;0.80;;
9364;SDS011;4722;49.340;9.800;2023-03-23T14:01:51;1.27;;;0.55;;
9364;SDS011;4722;49.340;9.800;2023-03-23T14:04:21;1.65;;;0.70;;
9364;SDS011;4722;49.340;9.800;2023-03-23T14:06:49;3.85;;;0.63;;
9364;SDS011;4722;49.340;9.800;2023-03-23T14:09:16;2.60;;;0.82;;
9364;SDS011;4722;49.340;9.800;2023-03-23T14:14:31;1.30;;;0.57;;
9364;SDS011;4722;49.340;9.800;2023-03-23T14:17:10;2.53;;;1.05;;
9364;SDS011;4722;49.340;9.800;2023-03-23T14:19:38;2.00;;;0.80;;
9364;SDS011;4722;49.340;9.800;2023-03-23T14:22:05;4.20;;;0.90;;
9364;SDS011;4722;49.340;9.800;2023-03-23T14:24:48;0.93;;;0.70;;
9364;SDS011;4722;49.340;9.800;2023-03-23T14:27:16;4.97;;;1.05;;
9364;SDS011;4722;49.340;9.800;2023-03-23T14:29:44;2.55;;;1.20;;
9364;SDS011;4722;49.340;9.800;2023-03-23T14:32:13;1.80;;;0.50;;
9364;SDS011;4722;49.340;9.800;2023-03-23T14:34:40;6.35;;;1.30;;
9364;SDS011;4722;49.340;9.800;2023-03-23T14:37:08;0.90;;;0.50;;
9364;SDS011;4722;49.340;9.800;2023-03-23T14:39:35;1.60;;;0.80;;
9364;SDS011;4722;49.340;9.800;2023-03-23T14:42:06;6.65;;;1.17;;
9364;SDS011;4722;49.340;9.800;2023-03-23T14:44:39;1.42;;;0.65;;
9364;SDS011;4722;49.340;9.800;2023-03-23T14:47:10;3.00;;;0.70;;
9364;SDS011;4722;49.340;9.800;2023-03-23T14:52:11;2.33;;;0.82;;
9364;SDS011;4722;49.340;9.800;2023-03-23T14:54:38;5.10;;;0.93;;
9364;SDS011;4722;49.340;9.800;2023-03-23T14:57:17;1.85;;;0.85;;
9364;SDS011;4722;49.340;9.800;2023-03-23T14:59:45;4.30;;;1.05;;
9364;SDS011;4722;49.340;9.800;2023-03-23T15:02:17;5.05;;;0.98;;
9364;SDS011;4722;49.340;9.800;2023-03-23T15:04:58;1.10;;;0.60;;
9364;SDS011;4722;49.340;9.800;2023-03-23T15:07:37;3.38;;;1.17;;
9364;SDS011;4722;49.340;9.800;2023-03-23T15:10:06;2.63;;;0.73;;
9364;SDS011;4722;49.340;9.800;2023-03-23T15:12:34;1.60;;;0.60;;
9364;SDS011;4722;49.340;9.800;2023-03-23T15:15:04;1.63;;;0.80;;
9364;SDS011;4722;49.340;9.800;2023-03-23T15:17:32;2.75;;;1.00;;
9364;SDS011;4722;49.340;9.800;2023-03-23T15:20:06;3.22;;;0.98;;
9364;SDS011;4722;49.340;9.800;2023-03-23T15:22:47;1.55;;;0.85;;
9364;SDS011;4722;49.340;9.800;2023-03-23T15:25:23;4.63;;;1.38;;
9364;SDS011;4722;49.340;9.800;2023-03-23T15:27:56;1.63;;;0.95;;
9364;SDS011;4722;49.340;9.800;2023-03-23T15:30:29;2.40;;;0.90;;
9364;SDS011;4722;49.340;9.800;2023-03-23T15:33:03;3.10;;;1.33;;
9364;SDS011;4722;49.340;9.800;2023-03-23T15:35:38;1.30;;;0.88;;
9364;SDS011;4722;49.340;9.800;2023-03-23T15:38:06;4.78;;;0.90;;
9364;SDS011;4722;49.340;9.800;2023-03-23T15:40:41;1.75;;;0.70;;
9364;SDS011;4722;49.340;9.800;2023-03-23T15:45:53;2.20;;;0.95;;
9364;SDS011;4722;49.340;9.800;2023-03-23T15:48:33;3.10;;;0.82;;
9364;SDS011;4722;49.340;9.800;2023-03-23T15:51:12;2.58;;;1.27;;
9364;SDS011;4722;49.340;9.800;2023-03-23T15:53:38;1.48;;;0.70;;
9364;SDS011;4722;49.340;9.800;2023-03-23T15:56:05;3.75;;;1.08;;
9364;SDS011;4722;49.340;9.800;2023-03-23T15:58:32;1.20;;;0.68;;
9364;SDS011;4722;49.340;9.800;2023-03-23T16:01:01;2.03;;;0.90;;
9364;SDS011;4722;49.340;9.800;2023-03-23T16:03:40;2.25;;;0.93;;
9364;SDS011;4722;49.340;9.800;2023-03-23T16:06:14;2.00;;;0.95;;
9364;SDS011;4722;49.340;9.800;2023-03-23T16:08:42;1.73;;;0.95;;
9364;SDS011;4722;49.340;9.800;2023-03-23T16:11:11;1.10;;;0.85;;
9364;SDS011;4722;49.340;9.800;2023-03-23T16:13:38;2.17;;;0.98;;
9364;SDS011;4722;49.340;9.800;2023-03-23T16:16:05;3.28;;;0.63;;
9364;SDS011;4722;49.340;9.800;2023-03-23T16:18:37;1.00;;;0.47;;
9364;SDS011;4722;49.340;9.800;2023-03-23T16:21:03;2.97;;;0.80;;
9364;SDS011;4722;49.340;9.800;2023-03-23T16:23:29;4.60;;;0.93;;
9364;SDS011;4722;49.340;9.800;2023-03-23T16:25:55;2.17;;;1.02;;
9364;SDS011;4722;49.340;9.800;2023-03-23T16:28:21;1.95;;;0.68;;
9364;SDS011;4722;49.340;9.800;2023-03-23T16:30:47;1.92;;;0.80;;
9364;SDS011;4722;49.340;9.800;2023-03-23T16:33:13;1.58;;;0.75;;
9364;SDS011;4722;49.340;9.800;2023-03-23T16:35:39;2.55;;;1.42;;
9364;SDS011;4722;49.340;9.800;2023-03-23T16:38:06;10.38;;;3.90;;
9364;SDS011;4722;49.340;9.800;2023-03-23T16:40:32;6.65;;;2.90;;
9364;SDS011;4722;49.340;9.800;2023-03-23T16:42:58;16.20;;;5.10;;
9364;SDS011;4722;49.340;9.800;2023-03-23T16:45:24;4.15;;;1.98;;
9364;SDS011;4722;49.340;9.800;2023-03-23T16:47:51;4.00;;;0.95;;
9364;SDS011;4722;49.340;9.800;2023-03-23T16:50:19;1.55;;;0.98;;
9364;SDS011;4722;49.340;9.800;2023-03-23T16:52:46;3.00;;;1.05;;
9364;SDS011;4722;49.340;9.800;2023-03-23T16:55:12;2.35;;;1.20;;
9364;SDS011;4722;49.340;9.800;2023-03-23T16:57:39;4.05;;;1.70;;
9364;SDS011;4722;49.340;9.800;2023-03-23T17:00:07;7.18;;;1.38;;
9364;SDS011;4722;49.340;9.800;2023-03-23T17:02:34;3.75;;;1.10;;
9364;SDS011;4722;49.340;9.800;2023-03-23T17:05:00;2.60;;;1.23;;
9364;SDS011;4722;49.340;9.800;2023-03-23T17:07:26;2.78;;;1.50;;
9364;SDS011;4722;49.340;9.800;2023-03-23T17:09:52;2.85;;;1.65;;
9364;SDS011;4722;49.340;9.800;2023-03-23T17:12:18;4.80;;;1.73;;
9364;SDS011;4722;49.340;9.800;2023-03-23T17:14:44;3.92;;;1.95;;
9364;SDS011;4722;49.340;9.800;2023-03-23T17:17:10;5.22;;;1.75;;
9364;SDS011;4722;49.340;9.800;2023-03-23T17:19:37;6.25;;;2.38;;
9364;SDS011;4722;49.340;9.800;2023-03-23T17:22:03;3.50;;;1.58;;
9364;SDS011;4722;49.340;9.800;2023-03-23T17:24:29;2.13;;;1.15;;
9364;SDS011;4722;49.340;9.800;2023-03-23T17:26:55;3.45;;;1.13;;
9364;SDS011;4722;49.340;9.800;2023-03-23T17:29:21;3.88;;;1.40;;
9364;SDS011;4722;49.340;9.800;2023-03-23T17:31:48;2.88;;;1.40;;
9364;SDS011;4722;49.340;9.800;2023-03-23T17:34:14;4.00;;;1.63;;
9364;SDS011;4722;49.340;9.800;2023-03-23T17:36:40;2.63;;;1.38;;
9364;SDS011;4722;49.340;9.800;2023-03-23T17:39:06;2.97;;;1.50;;
9364;SDS011;4722;49.340;9.800;2023-03-23T17:41:32;2.13;;;1.52;;
9364;SDS011;4722;49.340;9.800;2023-03-23T17:43:58;4.18;;;2.28;;
9364;SDS011;4722;49.340;9.800;2023-03-23T17:46:24;22.58;;;8.25;;
9364;SDS011;4722;49.340;9.800;2023-03-23T17:48:53;21.75;;;6.95;;
9364;SDS011;4722;49.340;9.800;2023-03-23T17:51:19;10.60;;;3.55;;
9364;SDS011;4722;49.340;9.800;2023-03-23T17:53:45;5.15;;;2.50;;
9364;SDS011;4722;49.340;9.800;2023-03-23T17:56:12;2.67;;;1.85;;
9364;SDS011;4722;49.340;9.800;2023-03-23T17:58:38;3.35;;;1.92;;
9364;SDS011;4722;49.340;9.800;2023-03-23T18:01:04;2.60;;;1.65;;
9364;SDS011;4722;49.340;9.800;2023-03-23T18:03:30;3.72;;;2.17;;
9364;SDS011;4722;49.340;9.800;2023-03-23T18:06:00;2.63;;;1.40;;
9364;SDS011;4722;49.340;9.800;2023-03-23T18:08:28;2.88;;;1.75;;
9364;SDS011;4722;49.340;9.800;2023-03-23T18:10:55;3.85;;;1.42;;
9364;SDS011;4722;49.340;9.800;2023-03-23T18:13:24;3.78;;;1.48;;
9364;SDS011;4722;49.340;9.800;2023-03-23T18:15:52;5.47;;;1.98;;
9364;SDS011;4722;49.340;9.800;2023-03-23T18:18:18;7.05;;;1.85;;
9364;SDS011;4722;49.340;9.800;2023-03-23T18:20:47;19.88;;;6.32;;
9364;SDS011;4722;49.340;9.800;2023-03-23T18:23:13;21.08;;;8.48;;
9364;SDS011;4722;49.340;9.800;2023-03-23T18:25:39;13.25;;;6.80;;
9364;SDS011;4722;49.340;9.800;2023-03-23T18:28:05;14.57;;;5.88;;
9364;SDS011;4722;49.340;9.800;2023-03-23T18:30:32;5.93;;;3.22;;
9364;SDS011;4722;49.340;9.800;2023-03-23T18:32:58;8.15;;;3.45;;
9364;SDS011;4722;49.340;9.800;2023-03-23T18:35:23;7.50;;;2.00;;
9364;SDS011;4722;49.340;9.800;2023-03-23T18:37:49;14.13;;;5.10;;
9364;SDS011;4722;49.340;9.800;2023-03-23T18:40:16;12.85;;;3.67;;
9364;SDS011;4722;49.340;9.800;2023-03-23T18:42:44;9.13;;;2.78;;
9364;SDS011;4722;49.340;9.800;2023-03-23T18:45:10;8.98;;;2.67;;
9364;SDS011;4722;49.340;9.800;2023-03-23T18:47:36;5.63;;;1.38;;
9364;SDS011;4722;49.340;9.800;2023-03-23T18:50:06;9.05;;;1.63;;
9364;SDS011;4722;49.340;9.800;2023-03-23T18:52:33;5.55;;;1.60;;
9364;SDS011;4722;49.340;9.800;2023-03-23T18:55:00;3.17;;;1.23;;
9364;SDS011;4722;49.340;9.800;2023-03-23T18:57:26;3.40;;;1.30;;
9364;SDS011;4722;49.340;9.800;2023-03-23T18:59:52;4.45;;;1.40;;
9364;SDS011;4722;49.340;9.800;2023-03-23T19:02:18;2.92;;;1.50;;